• 1
  • 2
  • 1

WebCam

  
Kamera Halle
Kamera Vorfeld

GPS Triangle WM Sports Class

AeroClub Göppingen-Salach e.V.
Ausrichter der Modellflug
GPS Triangle-WM 2020

Wetter EDDS

METAR

EDDS 142150Z 26007KT 9999 FEW040 05/04 Q1005 =
EDDS 141700Z 1418/1518 20008KT CAVOK TEMPO 1500/1512 4000 RADZ BKN012 BECMG 1503/1506 24013KT TEMPO 1505/1512 25015G25KT


TAF

EDDS 141700Z 1418/1518 20008KT CAVOK TEMPO 1500/1512 4000 RADZ BKN012 BECMG 1503/1506 24013KT TEMPO 1505/1512 25015G25KT =


SR/SS

07:05 / 15:25 UTC
(EDSO 14-12-2019)